createdAt,value
2023-01-11T04:05:45.417Z,102011.55
2023-01-11T04:08:12.374Z,102017.46
2023-01-11T04:10:39.527Z,102010.16
2023-01-11T04:13:06.405Z,102001.56
2023-01-11T04:15:34.941Z,101998.07
2023-01-11T04:18:05.491Z,101999.14
2023-01-11T04:20:36.624Z,101997.09
2023-01-11T04:23:04.657Z,101993.65
2023-01-11T04:25:31.688Z,102000.56
2023-01-11T04:27:58.671Z,102005.61
2023-01-11T04:30:25.697Z,102016.16
2023-01-11T04:32:52.620Z,102019.39
2023-01-11T04:35:19.586Z,102019.90
2023-01-11T04:37:46.471Z,102020.86
2023-01-11T04:40:13.603Z,102022.88
2023-01-11T04:42:40.513Z,102027.16
2023-01-11T04:45:07.948Z,102032.98
2023-01-11T04:47:34.842Z,102044.96
2023-01-11T04:50:01.875Z,102049.47
2023-01-11T04:52:28.863Z,102053.54
2023-01-11T04:54:55.812Z,102060.89
2023-01-11T04:57:22.746Z,102059.77
2023-01-11T04:59:49.664Z,102059.44
2023-01-11T05:02:16.590Z,102060.95
2023-01-11T05:04:43.855Z,102059.23
2023-01-11T05:07:10.985Z,102054.30
2023-01-11T05:09:38.001Z,102061.56
2023-01-11T05:12:05.065Z,102054.60
2023-01-11T05:14:32.078Z,102051.58
2023-01-11T05:16:59.142Z,102046.58
2023-01-11T05:19:26.331Z,102047.25
2023-01-11T05:21:53.234Z,102046.54
2023-01-11T05:24:20.212Z,102044.63
2023-01-11T05:26:48.615Z,102047.61
2023-01-11T05:29:21.054Z,102051.44
2023-01-11T05:31:48.983Z,102050.59
2023-01-11T05:34:16.438Z,102056.23
2023-01-11T05:36:43.601Z,102065.64
2023-01-11T05:39:14.051Z,102063.82
2023-01-11T05:41:41.013Z,102061.13
2023-01-11T05:44:31.412Z,102060.83
2023-01-11T05:46:58.524Z,102074.46
2023-01-11T05:49:28.729Z,102082.92
2023-01-11T05:51:55.681Z,102084.27
2023-01-11T05:54:22.646Z,102078.05
2023-01-11T05:56:49.572Z,102081.84
2023-01-11T05:59:16.567Z,102083.42
2023-01-11T06:01:43.543Z,102082.83
2023-01-11T06:04:10.562Z,102088.77
2023-01-11T06:06:37.529Z,102088.68
2023-01-11T06:09:04.524Z,102090.64
2023-01-11T06:11:31.540Z,102089.95
2023-01-11T06:13:58.494Z,102089.07
2023-01-11T06:16:25.625Z,102089.00
2023-01-11T06:18:52.971Z,102090.02
2023-01-11T06:21:20.240Z,102087.97
2023-01-11T06:23:48.579Z,102091.70
2023-01-11T06:26:16.733Z,102085.85
2023-01-11T06:28:44.793Z,102077.61
2023-01-11T06:31:11.928Z,102077.45
2023-01-11T06:33:39.035Z,102081.23
2023-01-11T06:36:07.941Z,102081.92
2023-01-11T06:38:35.293Z,102081.73
2023-01-11T06:41:03.044Z,102085.02
2023-01-11T06:43:30.500Z,102085.54
2023-01-11T06:45:57.877Z,102085.41
2023-01-11T06:48:24.920Z,102087.80
2023-01-11T06:50:53.840Z,102094.23
2023-01-11T06:53:21.156Z,102098.42
2023-01-11T06:55:52.479Z,102104.45
2023-01-11T06:58:20.052Z,102111.52
2023-01-11T07:00:47.190Z,102110.23
2023-01-11T07:03:14.208Z,102110.53
2023-01-11T07:05:43.379Z,102111.86
2023-01-11T07:08:10.349Z,102106.95
2023-01-11T07:10:37.604Z,102104.70
2023-01-11T07:13:04.541Z,102100.39
2023-01-11T07:15:31.527Z,102091.54
2023-01-11T07:17:59.369Z,102086.09
2023-01-11T07:20:26.536Z,102089.77
2023-01-11T07:22:57.310Z,102092.23
2023-01-11T07:25:24.817Z,102093.60
2023-01-11T07:27:59.440Z,102091.98
2023-01-11T07:30:27.893Z,102098.64
2023-01-11T07:32:55.301Z,102102.86
2023-01-11T07:35:22.248Z,102099.86
2023-01-11T07:37:49.325Z,102101.52
2023-01-11T07:40:18.115Z,102104.52
2023-01-11T07:43:11.591Z,102103.33
2023-01-11T07:45:45.711Z,102105.59
2023-01-11T07:48:13.472Z,102102.59
2023-01-11T07:50:45.260Z,102099.04
2023-01-11T09:34:15.428Z,102075.25
2023-01-11T09:36:44.488Z,102064.85
2023-01-11T09:39:14.792Z,102058.64
2023-01-11T09:41:49.525Z,102058.96
2023-01-11T11:50:45.479Z,101955.46
2023-01-11T11:53:35.248Z,101952.36
2023-01-11T11:56:21.522Z,101949.64
2023-01-11T11:58:48.486Z,101946.79
2023-01-11T12:01:33.092Z,101950.46
2023-01-11T12:04:10.028Z,101951.67
2023-01-11T12:06:37.058Z,101953.11
2023-01-11T12:09:04.109Z,101952.50
2023-01-11T12:11:35.604Z,101951.20
2023-01-11T12:14:11.699Z,101950.92
2023-01-11T12:16:40.372Z,101955.81
2023-01-11T12:19:29.420Z,101958.27
2023-01-11T12:22:23.504Z,101959.30
2023-01-11T12:25:21.776Z,101955.88
2023-01-11T12:28:07.672Z,101961.41
2023-01-11T12:30:43.109Z,101964.94
2023-01-11T12:33:38.146Z,101964.40
2023-01-11T12:36:08.806Z,101958.37
2023-01-11T12:38:42.398Z,101955.48
2023-01-11T12:41:09.665Z,101958.30
2023-01-11T12:43:51.944Z,101957.00
2023-01-11T12:58:05.411Z,101942.45
2023-01-11T13:00:43.236Z,101939.52
2023-01-11T13:03:34.433Z,101941.72
2023-01-11T13:06:33.101Z,101938.43
2023-01-11T13:09:08.508Z,101939.67
2023-01-11T13:11:43.727Z,101948.52
2023-01-11T13:14:27.452Z,101952.57
2023-01-11T13:17:24.145Z,101952.67
2023-01-11T13:20:00.609Z,101953.36
2023-01-11T13:22:33.688Z,101952.53
2023-01-11T13:25:01.742Z,101955.33
2023-01-11T13:27:29.251Z,101951.95
2023-01-11T13:29:56.359Z,101951.26
2023-01-11T13:32:24.944Z,101958.74
2023-01-11T13:34:57.707Z,101967.76
2023-01-11T13:37:35.623Z,101971.97
2023-01-11T13:40:24.595Z,101970.48
2023-01-11T13:42:54.825Z,101978.25
2023-01-11T13:45:24.888Z,101975.31
2023-01-11T13:47:55.778Z,101973.67
2023-01-11T13:50:33.646Z,101976.34
2023-01-11T13:53:18.997Z,101985.48
2023-01-11T13:55:55.253Z,101981.41
2023-01-11T13:58:25.784Z,101973.98
2023-01-11T14:00:54.146Z,101975.46
2023-01-11T14:03:21.198Z,101978.33
2023-01-11T14:06:10.343Z,101978.98
2023-01-11T14:09:00.925Z,101981.95
2023-01-11T14:11:40.899Z,101984.13
2023-01-11T14:14:29.434Z,101978.25
2023-01-11T14:17:18.377Z,101976.66
2023-01-11T14:19:54.472Z,101978.59
2023-01-11T14:22:59.883Z,101979.47
2023-01-11T14:25:29.836Z,101987.25
2023-01-11T14:28:29.364Z,101989.56
2023-01-11T14:30:59.172Z,101990.33
2023-01-11T14:33:36.273Z,101992.79
2023-01-11T14:36:29.278Z,101997.33
2023-01-11T14:39:24.849Z,101997.09
2023-01-11T14:42:04.204Z,101996.05
2023-01-11T14:44:34.111Z,101991.81
2023-01-11T14:47:30.659Z,101992.90
2023-01-11T14:50:17.924Z,101998.21
2023-01-11T14:52:44.890Z,101990.40
2023-01-11T14:55:23.706Z,101992.14
2023-01-11T14:57:57.047Z,101991.98
2023-01-11T15:00:24.197Z,102005.35
2023-01-11T15:03:00.377Z,102006.23
2023-01-11T15:05:33.760Z,102010.85
2023-01-11T15:08:25.398Z,102017.96
2023-01-11T15:11:18.982Z,102023.85
2023-01-11T15:13:55.149Z,102026.94
2023-01-11T15:16:47.608Z,102025.23
2023-01-11T15:19:29.768Z,102033.46
2023-01-11T15:21:57.118Z,102032.27
2023-01-11T15:24:29.094Z,102024.87
2023-01-11T15:26:56.894Z,102026.11
2023-01-11T15:29:27.488Z,102026.02
2023-01-11T15:31:54.483Z,102025.01
2023-01-11T15:34:39.950Z,102024.61
2023-01-11T15:37:36.165Z,102021.77
2023-01-11T15:40:09.258Z,102023.00
2023-01-11T15:43:18.462Z,102017.86
2023-01-11T15:46:16.571Z,102008.77
2023-01-11T15:48:52.617Z,101998.95
2023-01-11T15:51:50.964Z,101996.45
2023-01-11T15:54:32.557Z,101991.59
2023-01-11T15:57:24.712Z,101991.15
2023-01-11T16:00:30.179Z,101991.16
2023-01-11T16:03:28.571Z,101989.27
2023-01-11T19:33:12.141Z,101891.19
2023-01-11T19:35:41.604Z,101875.89
2023-01-11T19:38:08.519Z,101871.20
2023-01-11T19:40:35.880Z,101866.59
2023-01-11T19:43:03.218Z,101874.22
2023-01-11T19:45:30.474Z,101883.02
2023-01-11T19:47:58.069Z,101885.84
2023-01-11T19:50:25.036Z,101887.60
2023-01-11T19:52:51.755Z,101886.05
2023-01-11T19:55:18.686Z,101892.55
2023-01-11T19:57:45.687Z,101891.17
2023-01-11T20:00:14.377Z,101886.33
2023-01-11T20:02:41.969Z,101880.16
2023-01-11T20:05:09.234Z,101871.95
2023-01-11T20:07:36.449Z,101870.60
2023-01-11T20:10:03.457Z,101871.65
2023-01-11T20:12:30.692Z,101880.62
2023-01-11T20:15:00.620Z,101878.87
2023-01-11T20:17:28.335Z,101868.31
2023-01-11T20:19:55.402Z,101860.98
2023-01-11T20:22:23.391Z,101861.80
2023-01-11T20:24:50.761Z,101856.45
2023-01-11T20:27:17.694Z,101849.70
2023-01-11T20:29:45.268Z,101853.39
2023-01-11T20:32:34.878Z,101848.49
2023-01-11T20:35:00.473Z,101843.42
2023-01-11T20:37:27.974Z,101845.34
2023-01-11T20:39:54.805Z,101846.23
2023-01-11T20:42:21.795Z,101850.83
2023-01-11T20:44:48.611Z,101850.98
2023-01-11T20:47:15.721Z,101850.62
2023-01-11T20:49:42.831Z,101848.03
2023-01-11T20:52:09.616Z,101845.44
